sensor_id;sensor_type;location;lat;lon;timestamp;temperature;humidity
49489;SHT31;35382;51.484;11.476;2023-04-24T00:00:39;10.14;94.11
49489;SHT31;35382;51.484;11.476;2023-04-24T00:02:21;9.98;94.50
49489;SHT31;35382;51.484;11.476;2023-04-24T00:04:02;9.96;94.85
49489;SHT31;35382;51.484;11.476;2023-04-24T00:05:44;9.87;94.76
49489;SHT31;35382;51.484;11.476;2023-04-24T00:07:26;9.89;94.76
49489;SHT31;35382;51.484;11.476;2023-04-24T00:09:07;10.03;94.71
49489;SHT31;35382;51.484;11.476;2023-04-24T00:10:48;9.89;94.63
49489;SHT31;35382;51.484;11.476;2023-04-24T00:12:29;9.84;94.51
49489;SHT31;35382;51.484;11.476;2023-04-24T00:14:10;9.73;94.47
49489;SHT31;35382;51.484;11.476;2023-04-24T00:15:51;9.77;94.86
49489;SHT31;35382;51.484;11.476;2023-04-24T00:17:32;9.76;94.94
49489;SHT31;35382;51.484;11.476;2023-04-24T00:19:13;9.77;94.98
49489;SHT31;35382;51.484;11.476;2023-04-24T00:20:54;9.79;95.18
49489;SHT31;35382;51.484;11.476;2023-04-24T00:22:35;9.87;95.32
49489;SHT31;35382;51.484;11.476;2023-04-24T00:24:16;9.86;95.46
49489;SHT31;35382;51.484;11.476;2023-04-24T00:25:57;9.93;95.25
49489;SHT31;35382;51.484;11.476;2023-04-24T00:27:38;10.06;95.05
49489;SHT31;35382;51.484;11.476;2023-04-24T00:29:19;10.01;94.85
49489;SHT31;35382;51.484;11.476;2023-04-24T00:31:01;10.07;94.79
49489;SHT31;35382;51.484;11.476;2023-04-24T00:32:42;10.01;94.98
49489;SHT31;35382;51.484;11.476;2023-04-24T00:34:23;10.04;94.80
49489;SHT31;35382;51.484;11.476;2023-04-24T00:36:04;10.07;94.59
49489;SHT31;35382;51.484;11.476;2023-04-24T00:37:45;10.14;94.01
49489;SHT31;35382;51.484;11.476;2023-04-24T00:39:26;10.08;93.96
49489;SHT31;35382;51.484;11.476;2023-04-24T00:41:07;10.11;93.65
49489;SHT31;35382;51.484;11.476;2023-04-24T00:42:48;10.16;93.13
49489;SHT31;35382;51.484;11.476;2023-04-24T00:44:29;10.10;93.25
49489;SHT31;35382;51.484;11.476;2023-04-24T00:46:10;10.01;93.29
49489;SHT31;35382;51.484;11.476;2023-04-24T00:47:52;9.98;93.22
49489;SHT31;35382;51.484;11.476;2023-04-24T00:49:33;9.96;93.15
49489;SHT31;35382;51.484;11.476;2023-04-24T00:51:14;9.98;93.40
49489;SHT31;35382;51.484;11.476;2023-04-24T00:52:55;9.91;93.48
49489;SHT31;35382;51.484;11.476;2023-04-24T00:54:36;9.94;93.71
49489;SHT31;35382;51.484;11.476;2023-04-24T00:56:18;9.86;93.84
49489;SHT31;35382;51.484;11.476;2023-04-24T00:57:59;9.79;94.14
49489;SHT31;35382;51.484;11.476;2023-04-24T00:59:41;9.74;94.41
49489;SHT31;35382;51.484;11.476;2023-04-24T01:01:22;9.62;94.57
49489;SHT31;35382;51.484;11.476;2023-04-24T01:03:05;9.59;94.93
49489;SHT31;35382;51.484;11.476;2023-04-24T01:04:49;9.51;95.12
49489;SHT31;35382;51.484;11.476;2023-04-24T01:06:30;9.66;94.80
49489;SHT31;35382;51.484;11.476;2023-04-24T01:08:12;9.60;94.66
49489;SHT31;35382;51.484;11.476;2023-04-24T01:09:53;9.53;94.69
49489;SHT31;35382;51.484;11.476;2023-04-24T01:11:34;9.42;94.83
49489;SHT31;35382;51.484;11.476;2023-04-24T01:13:15;9.39;94.70
49489;SHT31;35382;51.484;11.476;2023-04-24T01:14:59;9.40;95.00
49489;SHT31;35382;51.484;11.476;2023-04-24T01:16:40;9.33;94.86
49489;SHT31;35382;51.484;11.476;2023-04-24T01:18:22;9.38;94.78
49489;SHT31;35382;51.484;11.476;2023-04-24T01:20:05;9.38;94.82
49489;SHT31;35382;51.484;11.476;2023-04-24T01:21:47;9.53;94.71
49489;SHT31;35382;51.484;11.476;2023-04-24T01:23:28;9.59;94.40
49489;SHT31;35382;51.484;11.476;2023-04-24T01:25:09;9.57;94.43
49489;SHT31;35382;51.484;11.476;2023-04-24T01:26:50;9.53;94.27
49489;SHT31;35382;51.484;11.476;2023-04-24T01:28:33;9.57;94.27
49489;SHT31;35382;51.484;11.476;2023-04-24T01:30:14;9.53;94.35
49489;SHT31;35382;51.484;11.476;2023-04-24T01:31:55;9.57;94.18
49489;SHT31;35382;51.484;11.476;2023-04-24T01:33:36;9.56;94.33
49489;SHT31;35382;51.484;11.476;2023-04-24T01:35:17;9.60;94.10
49489;SHT31;35382;51.484;11.476;2023-04-24T01:36:59;9.53;94.14
49489;SHT31;35382;51.484;11.476;2023-04-24T01:38:40;9.62;94.12
49489;SHT31;35382;51.484;11.476;2023-04-24T01:40:21;9.56;94.07
49489;SHT31;35382;51.484;11.476;2023-04-24T01:42:02;9.56;94.07
49489;SHT31;35382;51.484;11.476;2023-04-24T01:43:43;9.50;94.18
49489;SHT31;35382;51.484;11.476;2023-04-24T01:45:24;9.49;94.25
49489;SHT31;35382;51.484;11.476;2023-04-24T01:47:05;9.44;94.22
49489;SHT31;35382;51.484;11.476;2023-04-24T01:48:46;9.39;94.27
49489;SHT31;35382;51.484;11.476;2023-04-24T01:50:27;9.39;94.13
49489;SHT31;35382;51.484;11.476;2023-04-24T01:52:08;9.32;94.45
49489;SHT31;35382;51.484;11.476;2023-04-24T01:53:49;9.43;94.27
49489;SHT31;35382;51.484;11.476;2023-04-24T01:55:31;9.51;93.93
49489;SHT31;35382;51.484;11.476;2023-04-24T01:57:13;9.50;93.87
49489;SHT31;35382;51.484;11.476;2023-04-24T01:58:56;9.53;93.70
49489;SHT31;35382;51.484;11.476;2023-04-24T02:00:38;9.57;93.86
49489;SHT31;35382;51.484;11.476;2023-04-24T02:02:19;9.54;93.93
49489;SHT31;35382;51.484;11.476;2023-04-24T02:04:02;9.50;94.03
49489;SHT31;35382;51.484;11.476;2023-04-24T02:05:44;9.54;94.16
49489;SHT31;35382;51.484;11.476;2023-04-24T02:07:25;9.54;93.84
49489;SHT31;35382;51.484;11.476;2023-04-24T02:09:06;9.66;93.56
49489;SHT31;35382;51.484;11.476;2023-04-24T02:10:49;9.63;93.63
49489;SHT31;35382;51.484;11.476;2023-04-24T02:12:30;9.59;93.67
49489;SHT31;35382;51.484;11.476;2023-04-24T02:14:11;9.51;93.82
49489;SHT31;35382;51.484;11.476;2023-04-24T02:15:54;9.47;93.96
49489;SHT31;35382;51.484;11.476;2023-04-24T02:17:35;9.43;94.06
49489;SHT31;35382;51.484;11.476;2023-04-24T02:19:18;9.35;94.24
49489;SHT31;35382;51.484;11.476;2023-04-24T02:20:59;9.33;94.47
49489;SHT31;35382;51.484;11.476;2023-04-24T02:22:40;9.32;94.45
49489;SHT31;35382;51.484;11.476;2023-04-24T02:24:21;9.33;94.34
49489;SHT31;35382;51.484;11.476;2023-04-24T02:26:02;9.33;94.13
49489;SHT31;35382;51.484;11.476;2023-04-24T02:27:43;9.35;94.18
49489;SHT31;35382;51.484;11.476;2023-04-24T02:29:24;9.26;94.21
49489;SHT31;35382;51.484;11.476;2023-04-24T02:31:05;9.22;94.58
49489;SHT31;35382;51.484;11.476;2023-04-24T02:32:46;9.29;94.35
49489;SHT31;35382;51.484;11.476;2023-04-24T02:34:27;9.28;94.19
49489;SHT31;35382;51.484;11.476;2023-04-24T02:36:08;9.28;94.24
49489;SHT31;35382;51.484;11.476;2023-04-24T02:37:49;9.26;94.33
49489;SHT31;35382;51.484;11.476;2023-04-24T02:39:30;9.25;94.31
49489;SHT31;35382;51.484;11.476;2023-04-24T02:41:13;9.25;94.46
49489;SHT31;35382;51.484;11.476;2023-04-24T02:42:54;9.25;94.39
49489;SHT31;35382;51.484;11.476;2023-04-24T02:44:35;9.28;94.20
49489;SHT31;35382;51.484;11.476;2023-04-24T02:46:16;9.32;94.04
49489;SHT31;35382;51.484;11.476;2023-04-24T02:47:57;9.28;94.04
49489;SHT31;35382;51.484;11.476;2023-04-24T02:49:38;9.28;94.15
49489;SHT31;35382;51.484;11.476;2023-04-24T02:51:19;9.20;94.14
49489;SHT31;35382;51.484;11.476;2023-04-24T02:53:00;9.14;94.32
49489;SHT31;35382;51.484;11.476;2023-04-24T02:54:41;9.12;94.40
49489;SHT31;35382;51.484;11.476;2023-04-24T02:56:22;9.12;94.33
49489;SHT31;35382;51.484;11.476;2023-04-24T02:58:03;9.14;94.12
49489;SHT31;35382;51.484;11.476;2023-04-24T02:59:44;9.12;94.02
49489;SHT31;35382;51.484;11.476;2023-04-24T03:01:25;9.14;94.02
49489;SHT31;35382;51.484;11.476;2023-04-24T03:03:06;9.08;93.83
49489;SHT31;35382;51.484;11.476;2023-04-24T03:04:47;9.08;93.74
49489;SHT31;35382;51.484;11.476;2023-04-24T03:06:28;9.11;93.48
49489;SHT31;35382;51.484;11.476;2023-04-24T03:08:12;9.12;93.16
49489;SHT31;35382;51.484;11.476;2023-04-24T03:09:52;9.15;93.07
49489;SHT31;35382;51.484;11.476;2023-04-24T03:11:33;9.15;92.82
49489;SHT31;35382;51.484;11.476;2023-04-24T03:13:15;9.15;92.79
49489;SHT31;35382;51.484;11.476;2023-04-24T03:14:57;9.06;92.73
49489;SHT31;35382;51.484;11.476;2023-04-24T03:16:38;9.02;93.02
49489;SHT31;35382;51.484;11.476;2023-04-24T03:18:18;9.04;92.88
49489;SHT31;35382;51.484;11.476;2023-04-24T03:20:02;9.06;92.83
49489;SHT31;35382;51.484;11.476;2023-04-24T03:21:44;9.16;92.50
49489;SHT31;35382;51.484;11.476;2023-04-24T03:23:25;9.14;92.57
49489;SHT31;35382;51.484;11.476;2023-04-24T03:25:06;9.16;92.48
49489;SHT31;35382;51.484;11.476;2023-04-24T03:26:49;9.14;92.27
49489;SHT31;35382;51.484;11.476;2023-04-24T03:28:44;9.18;92.24
49489;SHT31;35382;51.484;11.476;2023-04-24T03:30:25;9.14;92.26
49489;SHT31;35382;51.484;11.476;2023-04-24T03:32:11;9.15;92.12
49489;SHT31;35382;51.484;11.476;2023-04-24T03:33:53;9.08;92.28
49489;SHT31;35382;51.484;11.476;2023-04-24T03:35:35;9.02;92.52
49489;SHT31;35382;51.484;11.476;2023-04-24T03:37:19;9.01;92.65
49489;SHT31;35382;51.484;11.476;2023-04-24T03:39:09;8.88;92.88
49489;SHT31;35382;51.484;11.476;2023-04-24T03:40:51;8.69;93.29
49489;SHT31;35382;51.484;11.476;2023-04-24T03:42:48;8.47;94.02
49489;SHT31;35382;51.484;11.476;2023-04-24T03:44:29;8.38;94.30
49489;SHT31;35382;51.484;11.476;2023-04-24T03:46:10;8.34;94.46
49489;SHT31;35382;51.484;11.476;2023-04-24T03:47:55;8.36;94.57
49489;SHT31;35382;51.484;11.476;2023-04-24T03:49:36;8.40;94.53
49489;SHT31;35382;51.484;11.476;2023-04-24T03:51:18;8.40;94.40
49489;SHT31;35382;51.484;11.476;2023-04-24T03:53:02;8.52;94.28
49489;SHT31;35382;51.484;11.476;2023-04-24T03:54:50;8.51;94.17
49489;SHT31;35382;51.484;11.476;2023-04-24T03:56:31;8.52;94.02
49489;SHT31;35382;51.484;11.476;2023-04-24T03:58:12;8.52;94.04
49489;SHT31;35382;51.484;11.476;2023-04-24T03:59:55;8.41;93.91
49489;SHT31;35382;51.484;11.476;2023-04-24T04:01:36;8.37;94.17
49489;SHT31;35382;51.484;11.476;2023-04-24T04:03:22;8.27;94.22
49489;SHT31;35382;51.484;11.476;2023-04-24T04:05:04;8.27;94.45
49489;SHT31;35382;51.484;11.476;2023-04-24T04:06:45;8.21;94.57
49489;SHT31;35382;51.484;11.476;2023-04-24T04:08:27;8.28;94.49
49489;SHT31;35382;51.484;11.476;2023-04-24T04:10:09;8.28;94.56
49489;SHT31;35382;51.484;11.476;2023-04-24T04:11:51;8.24;94.57
49489;SHT31;35382;51.484;11.476;2023-04-24T04:13:32;8.26;94.72
49489;SHT31;35382;51.484;11.476;2023-04-24T04:15:14;8.23;94.79
49489;SHT31;35382;51.484;11.476;2023-04-24T04:16:55;8.23;94.61
49489;SHT31;35382;51.484;11.476;2023-04-24T04:18:36;8.24;94.49
49489;SHT31;35382;51.484;11.476;2023-04-24T04:20:19;8.28;94.30
49489;SHT31;35382;51.484;11.476;2023-04-24T04:22:00;8.37;94.21
49489;SHT31;35382;51.484;11.476;2023-04-24T04:24:00;8.44;94.15
49489;SHT31;35382;51.484;11.476;2023-04-24T04:25:46;8.48;94.05
49489;SHT31;35382;51.484;11.476;2023-04-24T04:27:28;8.54;94.10
49489;SHT31;35382;51.484;11.476;2023-04-24T04:29:17;8.61;93.99
49489;SHT31;35382;51.484;11.476;2023-04-24T04:31:04;8.65;93.85
49489;SHT31;35382;51.484;11.476;2023-04-24T04:32:45;8.75;93.78
49489;SHT31;35382;51.484;11.476;2023-04-24T04:34:26;8.85;93.66
49489;SHT31;35382;51.484;11.476;2023-04-24T04:36:07;8.99;93.20
49489;SHT31;35382;51.484;11.476;2023-04-24T04:37:52;9.09;93.17
49489;SHT31;35382;51.484;11.476;2023-04-24T04:40:11;9.23;92.75
49489;SHT31;35382;51.484;11.476;2023-04-24T04:42:01;9.36;92.66
49489;SHT31;35382;51.484;11.476;2023-04-24T04:43:49;9.46;92.33
49489;SHT31;35382;51.484;11.476;2023-04-24T04:45:31;9.54;92.29
49489;SHT31;35382;51.484;11.476;2023-04-24T04:47:43;9.57;92.22
49489;SHT31;35382;51.484;11.476;2023-04-24T04:49:25;9.62;92.16
49489;SHT31;35382;51.484;11.476;2023-04-24T04:51:06;9.67;91.47
49489;SHT31;35382;51.484;11.476;2023-04-24T04:52:47;9.74;91.41
49489;SHT31;35382;51.484;11.476;2023-04-24T04:54:37;9.76;91.36
49489;SHT31;35382;51.484;11.476;2023-04-24T04:56:18;9.74;91.26
49489;SHT31;35382;51.484;11.476;2023-04-24T04:58:00;9.89;91.00
49489;SHT31;35382;51.484;11.476;2023-04-24T04:59:41;10.00;90.53
49489;SHT31;35382;51.484;11.476;2023-04-24T05:01:28;10.01;90.33
49489;SHT31;35382;51.484;11.476;2023-04-24T05:03:10;9.97;90.88
49489;SHT31;35382;51.484;11.476;2023-04-24T05:04:51;9.94;91.12
49489;SHT31;35382;51.484;11.476;2023-04-24T05:06:32;9.97;91.22
49489;SHT31;35382;51.484;11.476;2023-04-24T05:08:13;9.86;91.34
49489;SHT31;35382;51.484;11.476;2023-04-24T05:09:54;9.86;91.21
49489;SHT31;35382;51.484;11.476;2023-04-24T05:11:35;9.87;91.12
49489;SHT31;35382;51.484;11.476;2023-04-24T05:13:17;9.82;91.30
49489;SHT31;35382;51.484;11.476;2023-04-24T05:14:58;9.79;91.47
49489;SHT31;35382;51.484;11.476;2023-04-24T05:16:40;9.77;91.65
49489;SHT31;35382;51.484;11.476;2023-04-24T05:18:22;9.82;91.56
49489;SHT31;35382;51.484;11.476;2023-04-24T05:20:04;9.87;91.54
49489;SHT31;35382;51.484;11.476;2023-04-24T05:21:48;9.94;91.17
49489;SHT31;35382;51.484;11.476;2023-04-24T05:23:29;10.11;90.49
49489;SHT31;35382;51.484;11.476;2023-04-24T05:25:11;10.18;90.12
49489;SHT31;35382;51.484;11.476;2023-04-24T05:27:13;10.20;90.12
49489;SHT31;35382;51.484;11.476;2023-04-24T05:28:55;10.21;89.94
49489;SHT31;35382;51.484;11.476;2023-04-24T05:30:36;10.14;90.52
49489;SHT31;35382;51.484;11.476;2023-04-24T05:32:17;10.14;90.26
49489;SHT31;35382;51.484;11.476;2023-04-24T05:33:59;10.25;90.26
49489;SHT31;35382;51.484;11.476;2023-04-24T05:35:40;10.25;89.91
49489;SHT31;35382;51.484;11.476;2023-04-24T05:37:26;10.37;89.95
49489;SHT31;35382;51.484;11.476;2023-04-24T05:39:08;10.47;89.92
49489;SHT31;35382;51.484;11.476;2023-04-24T05:40:49;10.58;90.17
49489;SHT31;35382;51.484;11.476;2023-04-24T05:42:30;10.65;89.78
49489;SHT31;35382;51.484;11.476;2023-04-24T05:44:11;10.82;89.89
49489;SHT31;35382;51.484;11.476;2023-04-24T05:45:52;10.81;89.04
49489;SHT31;35382;51.484;11.476;2023-04-24T05:47:34;10.91;89.39
49489;SHT31;35382;51.484;11.476;2023-04-24T05:49:15;11.01;88.81
49489;SHT31;35382;51.484;11.476;2023-04-24T05:50:56;10.95;88.75
49489;SHT31;35382;51.484;11.476;2023-04-24T05:52:38;10.94;88.79
49489;SHT31;35382;51.484;11.476;2023-04-24T05:54:27;10.99;89.49
49489;SHT31;35382;51.484;11.476;2023-04-24T05:56:08;10.96;89.22
49489;SHT31;35382;51.484;11.476;2023-04-24T05:57:50;11.08;89.61
49489;SHT31;35382;51.484;11.476;2023-04-24T05:59:31;11.20;89.23
49489;SHT31;35382;51.484;11.476;2023-04-24T06:01:13;11.28;89.18
49489;SHT31;35382;51.484;11.476;2023-04-24T06:02:55;11.25;88.50
49489;SHT31;35382;51.484;11.476;2023-04-24T06:04:36;11.38;89.07
49489;SHT31;35382;51.484;11.476;2023-04-24T06:06:17;11.56;88.87
49489;SHT31;35382;51.484;11.476;2023-04-24T06:08:00;11.70;88.49
49489;SHT31;35382;51.484;11.476;2023-04-24T06:09:46;11.79;88.19
49489;SHT31;35382;51.484;11.476;2023-04-24T06:11:28;11.84;87.57
49489;SHT31;35382;51.484;11.476;2023-04-24T06:13:09;11.80;87.25
49489;SHT31;35382;51.484;11.476;2023-04-24T06:14:55;12.21;85.67
49489;SHT31;35382;51.484;11.476;2023-04-24T06:16:47;12.40;85.19
49489;SHT31;35382;51.484;11.476;2023-04-24T06:18:43;12.60;83.63
49489;SHT31;35382;51.484;11.476;2023-04-24T06:20:24;12.98;83.40
49489;SHT31;35382;51.484;11.476;2023-04-24T06:22:05;13.16;83.63
49489;SHT31;35382;51.484;11.476;2023-04-24T06:23:46;12.96;85.21
49489;SHT31;35382;51.484;11.476;2023-04-24T06:25:31;12.58;84.47
49489;SHT31;35382;51.484;11.476;2023-04-24T06:27:13;12.38;85.18
49489;SHT31;35382;51.484;11.476;2023-04-24T06:28:55;12.10;85.23
49489;SHT31;35382;51.484;11.476;2023-04-24T06:30:39;11.87;85.24
49489;SHT31;35382;51.484;11.476;2023-04-24T06:32:23;11.74;85.98
49489;SHT31;35382;51.484;11.476;2023-04-24T06:34:04;11.80;86.81
49489;SHT31;35382;51.484;11.476;2023-04-24T06:35:45;11.84;86.36
49489;SHT31;35382;51.484;11.476;2023-04-24T06:37:26;11.91;85.95
49489;SHT31;35382;51.484;11.476;2023-04-24T06:39:07;11.90;85.13
49489;SHT31;35382;51.484;11.476;2023-04-24T06:40:56;11.86;85.35
49489;SHT31;35382;51.484;11.476;2023-04-24T06:42:37;11.83;85.77
49489;SHT31;35382;51.484;11.476;2023-04-24T06:44:18;11.86;85.35
49489;SHT31;35382;51.484;11.476;2023-04-24T06:46:00;11.79;86.08
49489;SHT31;35382;51.484;11.476;2023-04-24T06:47:41;11.79;86.57
49489;SHT31;35382;51.484;11.476;2023-04-24T06:49:21;11.72;86.60
49489;SHT31;35382;51.484;11.476;2023-04-24T06:51:02;11.65;87.68
49489;SHT31;35382;51.484;11.476;2023-04-24T06:52:43;11.58;87.74
49489;SHT31;35382;51.484;11.476;2023-04-24T06:54:24;11.40;86.83
49489;SHT31;35382;51.484;11.476;2023-04-24T06:56:05;11.43;86.85
49489;SHT31;35382;51.484;11.476;2023-04-24T06:57:46;11.42;87.63
49489;SHT31;35382;51.484;11.476;2023-04-24T06:59:27;11.39;87.49
49489;SHT31;35382;51.484;11.476;2023-04-24T07:01:10;11.33;88.20
49489;SHT31;35382;51.484;11.476;2023-04-24T07:02:50;11.30;88.18
49489;SHT31;35382;51.484;11.476;2023-04-24T07:04:31;11.36;88.58
49489;SHT31;35382;51.484;11.476;2023-04-24T07:06:12;11.39;88.29
49489;SHT31;35382;51.484;11.476;2023-04-24T07:07:53;11.58;87.85
49489;SHT31;35382;51.484;11.476;2023-04-24T07:09:34;11.72;86.69
49489;SHT31;35382;51.484;11.476;2023-04-24T07:11:19;11.79;86.07
49489;SHT31;35382;51.484;11.476;2023-04-24T07:13:00;11.86;85.89
49489;SHT31;35382;51.484;11.476;2023-04-24T07:14:42;11.83;86.33
49489;SHT31;35382;51.484;11.476;2023-04-24T07:16:23;11.91;84.70
49489;SHT31;35382;51.484;11.476;2023-04-24T07:18:07;11.79;84.53
49489;SHT31;35382;51.484;11.476;2023-04-24T07:19:58;11.82;83.70
49489;SHT31;35382;51.484;11.476;2023-04-24T07:21:41;11.84;83.97
49489;SHT31;35382;51.484;11.476;2023-04-24T07:23:25;11.89;85.01
49489;SHT31;35382;51.484;11.476;2023-04-24T07:25:09;11.89;84.78
49489;SHT31;35382;51.484;11.476;2023-04-24T07:26:51;11.86;84.41
49489;SHT31;35382;51.484;11.476;2023-04-24T07:28:32;11.82;84.09
49489;SHT31;35382;51.484;11.476;2023-04-24T07:30:13;11.89;84.55
49489;SHT31;35382;51.484;11.476;2023-04-24T07:31:54;11.91;84.25
49489;SHT31;35382;51.484;11.476;2023-04-24T07:33:39;12.30;83.65
49489;SHT31;35382;51.484;11.476;2023-04-24T07:35:20;12.41;83.76
49489;SHT31;35382;51.484;11.476;2023-04-24T07:37:01;12.55;82.61
49489;SHT31;35382;51.484;11.476;2023-04-24T07:38:42;12.52;82.96
49489;SHT31;35382;51.484;11.476;2023-04-24T07:40:24;12.81;82.75
49489;SHT31;35382;51.484;11.476;2023-04-24T07:42:05;12.87;82.39
49489;SHT31;35382;51.484;11.476;2023-04-24T07:43:49;13.16;81.16
49489;SHT31;35382;51.484;11.476;2023-04-24T07:45:30;13.52;80.87
49489;SHT31;35382;51.484;11.476;2023-04-24T07:47:11;13.80;81.14
49489;SHT31;35382;51.484;11.476;2023-04-24T07:48:52;13.40;78.56
49489;SHT31;35382;51.484;11.476;2023-04-24T07:50:34;13.22;78.37
49489;SHT31;35382;51.484;11.476;2023-04-24T07:52:16;12.71;78.52
49489;SHT31;35382;51.484;11.476;2023-04-24T07:54:03;12.69;80.03
49489;SHT31;35382;51.484;11.476;2023-04-24T07:55:47;12.84;80.03
49489;SHT31;35382;51.484;11.476;2023-04-24T07:57:28;13.08;78.90
49489;SHT31;35382;51.484;11.476;2023-04-24T07:59:10;13.05;79.37
49489;SHT31;35382;51.484;11.476;2023-04-24T08:00:51;12.88;79.04
49489;SHT31;35382;51.484;11.476;2023-04-24T08:02:38;12.65;78.14
49489;SHT31;35382;51.484;11.476;2023-04-24T08:04:27;12.64;78.67
49489;SHT31;35382;51.484;11.476;2023-04-24T08:06:17;13.12;76.77
49489;SHT31;35382;51.484;11.476;2023-04-24T08:07:58;13.72;77.32
49489;SHT31;35382;51.484;11.476;2023-04-24T08:09:39;13.89;77.33
49489;SHT31;35382;51.484;11.476;2023-04-24T08:11:20;13.42;75.78
49489;SHT31;35382;51.484;11.476;2023-04-24T08:13:01;13.80;74.40
49489;SHT31;35382;51.484;11.476;2023-04-24T08:14:46;13.84;76.39
49489;SHT31;35382;51.484;11.476;2023-04-24T08:16:30;14.00;75.27
49489;SHT31;35382;51.484;11.476;2023-04-24T08:18:15;14.56;75.33
49489;SHT31;35382;51.484;11.476;2023-04-24T08:19:56;14.45;72.02
49489;SHT31;35382;51.484;11.476;2023-04-24T08:21:46;14.85;72.55
49489;SHT31;35382;51.484;11.476;2023-04-24T08:23:27;14.83;70.51
49489;SHT31;35382;51.484;11.476;2023-04-24T08:25:22;14.94;70.32
49489;SHT31;35382;51.484;11.476;2023-04-24T08:27:06;14.95;71.65
49489;SHT31;35382;51.484;11.476;2023-04-24T08:28:47;14.64;73.04
49489;SHT31;35382;51.484;11.476;2023-04-24T08:30:34;14.23;71.58
49489;SHT31;35382;51.484;11.476;2023-04-24T08:32:27;13.69;74.01
49489;SHT31;35382;51.484;11.476;2023-04-24T08:34:14;13.26;73.61
49489;SHT31;35382;51.484;11.476;2023-04-24T08:35:58;13.01;73.53
49489;SHT31;35382;51.484;11.476;2023-04-24T08:37:48;12.91;75.50
49489;SHT31;35382;51.484;11.476;2023-04-24T08:41:26;13.02;74.30
49489;SHT31;35382;51.484;11.476;2023-04-24T08:43:08;13.15;74.09
49489;SHT31;35382;51.484;11.476;2023-04-24T08:44:49;13.18;76.11
49489;SHT31;35382;51.484;11.476;2023-04-24T08:46:30;13.08;74.91
49489;SHT31;35382;51.484;11.476;2023-04-24T08:48:11;13.29;74.95
49489;SHT31;35382;51.484;11.476;2023-04-24T08:49:53;13.45;75.92
49489;SHT31;35382;51.484;11.476;2023-04-24T08:51:36;13.14;75.70
49489;SHT31;35382;51.484;11.476;2023-04-24T08:53:18;12.89;73.93
49489;SHT31;35382;51.484;11.476;2023-04-24T08:55:00;12.84;74.53
49489;SHT31;35382;51.484;11.476;2023-04-24T08:56:44;12.82;75.84
49489;SHT31;35382;51.484;11.476;2023-04-24T08:58:25;12.84;75.96
49489;SHT31;35382;51.484;11.476;2023-04-24T09:00:10;12.82;75.10
49489;SHT31;35382;51.484;11.476;2023-04-24T09:01:51;12.88;75.53
49489;SHT31;35382;51.484;11.476;2023-04-24T09:03:33;13.06;74.91
49489;SHT31;35382;51.484;11.476;2023-04-24T09:05:14;13.65;71.79
49489;SHT31;35382;51.484;11.476;2023-04-24T09:06:57;13.99;70.31
49489;SHT31;35382;51.484;11.476;2023-04-24T09:08:41;13.76;69.80
49489;SHT31;35382;51.484;11.476;2023-04-24T09:10:24;13.62;68.48
49489;SHT31;35382;51.484;11.476;2023-04-24T09:12:05;14.84;69.50
49489;SHT31;35382;51.484;11.476;2023-04-24T09:13:48;14.99;66.95
49489;SHT31;35382;51.484;11.476;2023-04-24T09:15:29;14.31;66.29
49489;SHT31;35382;51.484;11.476;2023-04-24T09:17:10;13.99;65.95
49489;SHT31;35382;51.484;11.476;2023-04-24T09:18:52;13.59;68.76
49489;SHT31;35382;51.484;11.476;2023-04-24T09:20:33;13.28;67.65
49489;SHT31;35382;51.484;11.476;2023-04-24T09:22:15;13.12;69.56
49489;SHT31;35382;51.484;11.476;2023-04-24T09:24:01;12.99;69.75
49489;SHT31;35382;51.484;11.476;2023-04-24T09:25:43;12.87;70.09
49489;SHT31;35382;51.484;11.476;2023-04-24T09:27:24;12.91;70.43
49489;SHT31;35382;51.484;11.476;2023-04-24T09:29:05;12.88;68.88
49489;SHT31;35382;51.484;11.476;2023-04-24T09:30:46;12.74;69.83
49489;SHT31;35382;51.484;11.476;2023-04-24T09:32:42;12.72;68.72
49489;SHT31;35382;51.484;11.476;2023-04-24T09:34:24;12.72;69.18
49489;SHT31;35382;51.484;11.476;2023-04-24T09:36:06;12.74;70.05
49489;SHT31;35382;51.484;11.476;2023-04-24T09:37:47;12.67;67.53
49489;SHT31;35382;51.484;11.476;2023-04-24T09:39:29;12.72;68.76
49489;SHT31;35382;51.484;11.476;2023-04-24T09:41:13;13.01;69.54
49489;SHT31;35382;51.484;11.476;2023-04-24T09:42:55;12.91;64.97
49489;SHT31;35382;51.484;11.476;2023-04-24T09:44:41;13.20;67.36
49489;SHT31;35382;51.484;11.476;2023-04-24T09:46:29;13.29;64.90
49489;SHT31;35382;51.484;11.476;2023-04-24T09:48:11;13.42;65.75
49489;SHT31;35382;51.484;11.476;2023-04-24T09:49:57;13.55;63.26
49489;SHT31;35382;51.484;11.476;2023-04-24T09:51:38;14.41;66.05
49489;SHT31;35382;51.484;11.476;2023-04-24T09:53:24;13.73;62.78
49489;SHT31;35382;51.484;11.476;2023-04-24T09:55:11;14.60;66.77
49489;SHT31;35382;51.484;11.476;2023-04-24T09:56:52;14.73;62.71
49489;SHT31;35382;51.484;11.476;2023-04-24T09:58:35;14.75;62.79
49489;SHT31;35382;51.484;11.476;2023-04-24T10:00:25;14.60;62.63
49489;SHT31;35382;51.484;11.476;2023-04-24T10:02:17;13.99;61.76
49489;SHT31;35382;51.484;11.476;2023-04-24T10:03:59;13.42;61.74
49489;SHT31;35382;51.484;11.476;2023-04-24T10:05:40;13.32;63.81
49489;SHT31;35382;51.484;11.476;2023-04-24T10:07:21;13.40;60.88
49489;SHT31;35382;51.484;11.476;2023-04-24T10:09:02;13.58;61.63
49489;SHT31;35382;51.484;11.476;2023-04-24T10:10:45;13.77;59.69
49489;SHT31;35382;51.484;11.476;2023-04-24T10:12:26;14.14;60.29
49489;SHT31;35382;51.484;11.476;2023-04-24T10:14:12;14.80;60.74
49489;SHT31;35382;51.484;11.476;2023-04-24T10:15:53;15.14;60.15
49489;SHT31;35382;51.484;11.476;2023-04-24T10:17:34;14.96;59.81
49489;SHT31;35382;51.484;11.476;2023-04-24T10:19:17;14.92;61.79
49489;SHT31;35382;51.484;11.476;2023-04-24T10:21:01;15.35;61.81
49489;SHT31;35382;51.484;11.476;2023-04-24T10:22:42;15.52;57.47
49489;SHT31;35382;51.484;11.476;2023-04-24T10:24:23;15.21;59.35
49489;SHT31;35382;51.484;11.476;2023-04-24T10:26:04;15.18;59.43
49489;SHT31;35382;51.484;11.476;2023-04-24T10:27:46;14.34;58.80
49489;SHT31;35382;51.484;11.476;2023-04-24T10:29:27;14.17;61.79
49489;SHT31;35382;51.484;11.476;2023-04-24T10:31:13;14.41;59.01
49489;SHT31;35382;51.484;11.476;2023-04-24T10:32:54;14.74;59.03
49489;SHT31;35382;51.484;11.476;2023-04-24T10:34:35;13.94;58.14
49489;SHT31;35382;51.484;11.476;2023-04-24T10:36:17;13.45;58.77
49489;SHT31;35382;51.484;11.476;2023-04-24T10:38:05;13.58;58.91
49489;SHT31;35382;51.484;11.476;2023-04-24T10:39:48;14.21;59.03
49489;SHT31;35382;51.484;11.476;2023-04-24T10:41:30;14.59;57.83
49489;SHT31;35382;51.484;11.476;2023-04-24T10:43:16;14.38;55.83
49489;SHT31;35382;51.484;11.476;2023-04-24T10:44:58;15.42;59.11